| time (UTC) | temp C | wind direction | speed KPH | gust KPH | rain 1hr cm | rain 24hr cm | rain mn cm | humidity % | barometer mb |
| 20260906232320 | 17 | 12 | 8.0 | 12.9 | 0.00 | 0.03 | 0.03 | 76 | 1015.6 |
| 20260906231815 | 17 | 349 | 4.8 | 4.8 | 0.00 | 0.03 | 0.03 | 76 | 1015.6 |
| 20260906231310 | 18 | 318 | 8.0 | 9.7 | 0.00 | 0.03 | 0.03 | 75 | 1015.8 |
| 20260906230809 | 17 | 281 | 6.4 | 8.0 | 0.00 | 0.03 | 0.03 | 78 | 1015.8 |
| 20260906230305 | 17 | 308 | 8.0 | 9.7 | 0.00 | 0.03 | 0.03 | 78 | 1015.9 |
| 20260906225802 | 17 | 296 | 4.8 | 4.8 | 0.00 | 0.03 | 0.03 | 79 | 1016.0 |
| 20260906225259 | 17 | 303 | 9.7 | 11.3 | 0.00 | 0.03 | 0.03 | 80 | 1016.2 |
| 20260906224754 | 17 | 293 | 11.3 | 11.3 | 0.00 | 0.03 | 0.03 | 79 | 1016.2 |
| 20260906224250 | 17 | 296 | 8.0 | 9.7 | 0.00 | 0.03 | 0.03 | 79 | 1016.4 |
| 20260906223747 | 17 | 1 | 4.8 | 4.8 | 0.00 | 0.03 | 0.03 | 77 | 1016.3 |
| 20260906223243 | 17 | 43 | 4.8 | 4.8 | 0.00 | 0.03 | 0.03 | 79 | 1016.4 |
| 20260906222740 | 17 | 40 | 1.6 | 3.2 | 0.00 | 0.03 | 0.03 | 79 | 1016.4 |
| 20260906222234 | 17 | 38 | 4.8 | 4.8 | 0.00 | 0.03 | 0.03 | 79 | 1016.5 |
| 20260906221732 | 17 | 28 | 4.8 | 4.8 | 0.00 | 0.03 | 0.03 | 79 | 1016.3 |
| 20260906221232 | 17 | 30 | 6.4 | 8.0 | 0.00 | 0.03 | 0.03 | 79 | 1016.0 |
| 20260906220727 | 17 | 31 | 4.8 | 4.8 | 0.00 | 0.03 | 0.03 | 79 | 1016.3 |
| 20260906220222 | 17 | 60 | 8.0 | 9.7 | 0.00 | 0.03 | 0.03 | 78 | 1016.2 |
| 20260906215721 | 17 | 47 | 9.7 | 12.9 | 0.00 | 0.03 | 0.03 | 78 | 1016.2 |
| 20260906215220 | 17 | 38 | 6.4 | 8.0 | 0.00 | 0.03 | 0.03 | 78 | 1016.3 |
| 20260906214719 | 17 | 40 | 8.0 | 11.3 | 0.00 | 0.03 | 0.03 | 79 | 1016.0 |
| 20260906214215 | 17 | 16 | 6.4 | 9.7 | 0.00 | 0.03 | 0.03 | 78 | 1016.3 |
| 20260906213713 | 17 | 27 | 8.0 | 11.3 | 0.00 | 0.03 | 0.03 | 79 | 1016.2 |
| 20260906213208 | 17 | 39 | 11.3 | 14.5 | 0.00 | 0.03 | 0.03 | 78 | 1016.3 |
| 20260906212705 | 17 | 45 | 9.7 | 12.9 | 0.00 | 0.03 | 0.03 | 78 | 1016.3 |
| 20260906212201 | 17 | 59 | 6.4 | 8.0 | 0.00 | 0.03 | 0.03 | 78 | 1016.2 |
| 20260906211700 | 17 | 35 | 11.3 | 11.3 | 0.00 | 0.03 | 0.03 | 78 | 1016.2 |
| 20260906211155 | 17 | 51 | 12.9 | 12.9 | 0.00 | 0.03 | 0.03 | 78 | 1016.3 |
| 20260906210651 | 17 | 43 | 9.7 | 14.5 | 0.00 | 0.03 | 0.03 | 77 | 1016.3 |
| 20260906210151 | 17 | 36 | 9.7 | 11.3 | 0.00 | 0.03 | 0.03 | 77 | 1016.2 |
| 20260906205647 | 17 | 62 | 6.4 | 9.7 | 0.00 | 0.03 | 0.03 | 78 | 1016.2 |
| 20260906205143 | 17 | 62 | 11.3 | 12.9 | 0.00 | 0.03 | 0.03 | 77 | 1016.5 |
| 20260906204642 | 17 | 57 | 9.7 | 11.3 | 0.00 | 0.03 | 0.03 | 77 | 1016.3 |
| 20260906204137 | 17 | 29 | 9.7 | 11.3 | 0.00 | 0.03 | 0.03 | 77 | 1016.5 |
| 20260906203638 | 17 | 36 | 9.7 | 11.3 | 0.00 | 0.03 | 0.03 | 76 | 1016.5 |
| 20260906203138 | 17 | 58 | 4.8 | 8.0 | 0.00 | 0.03 | 0.03 | 77 | 1016.5 |
| 20260906202635 | 17 | 49 | 12.9 | 14.5 | 0.00 | 0.03 | 0.03 | 76 | 1016.2 |
| 20260906202134 | 17 | 43 | 8.0 | 9.7 | 0.00 | 0.03 | 0.03 | 76 | 1016.3 |
| 20260906201629 | 17 | 16 | 8.0 | 11.3 | 0.00 | 0.03 | 0.03 | 77 | 1016.4 |
| 20260906201128 | 17 | 58 | 8.0 | 9.7 | 0.00 | 0.03 | 0.03 | 77 | 1016.5 |
| 20260906200625 | 17 | 25 | 4.8 | 4.8 | 0.00 | 0.03 | 0.03 | 78 | 1016.7 |
| 20260906200120 | 17 | 26 | 6.4 | 9.7 | 0.00 | 0.03 | 0.03 | 77 | 1016.5 |
| 20260906195615 | 17 | 28 | 9.7 | 11.3 | 0.00 | 0.03 | 0.03 | 76 | 1016.7 |
| 20260906195111 | 17 | 31 | 6.4 | 8.0 | 0.00 | 0.03 | 0.03 | 76 | 1016.5 |
| 20260906194607 | 17 | 25 | 8.0 | 9.7 | 0.00 | 0.03 | 0.03 | 76 | 1016.5 |
| 20260906194103 | 17 | 10 | 9.7 | 11.3 | 0.00 | 0.03 | 0.03 | 76 | 1016.6 |
| 20260906193602 | 17 | 2 | 6.4 | 9.7 | 0.00 | 0.03 | 0.03 | 77 | 1016.7 |
| 20260906193058 | 17 | 59 | 8.0 | 11.3 | 0.00 | 0.03 | 0.03 | 76 | 1016.7 |
| 20260906192553 | 17 | 70 | 11.3 | 12.9 | 0.00 | 0.03 | 0.03 | 76 | 1016.6 |
| 20260906192052 | 17 | 31 | 9.7 | 12.9 | 0.00 | 0.03 | 0.03 | 76 | 1016.5 |
| 20260906191548 | 17 | 83 | 6.4 | 9.7 | 0.00 | 0.03 | 0.03 | 76 | 1016.6 |
| 20260906191047 | 17 | 31 | 8.0 | 11.3 | 0.00 | 0.03 | 0.03 | 75 | 1016.6 |
| 20260906190546 | 17 | 33 | 12.9 | 14.5 | 0.00 | 0.03 | 0.03 | 75 | 1016.8 |
| 20260906190041 | 17 | 38 | 16.1 | 20.9 | 0.00 | 0.03 | 0.03 | 74 | 1016.7 |
| 20260906185540 | 17 | 42 | 17.7 | 22.5 | 0.00 | 0.03 | 0.03 | 73 | 1016.6 |
| 20260906185039 | 17 | 43 | 12.9 | 16.1 | 0.00 | 0.03 | 0.03 | 73 | 1016.6 |
| 20260906184534 | 17 | 28 | 17.7 | 22.5 | 0.00 | 0.03 | 0.03 | 72 | 1016.8 |
| 20260906184030 | 17 | 74 | 14.5 | 16.1 | 0.00 | 0.03 | 0.03 | 74 | 1016.8 |
| 20260906183526 | 17 | 32 | 14.5 | 16.1 | 0.00 | 0.03 | 0.03 | 74 | 1016.7 |
| 20260906183021 | 16 | 26 | 14.5 | 16.1 | 0.00 | 0.03 | 0.03 | 75 | 1016.9 |
| 20260906182516 | 17 | 14 | 11.3 | 16.1 | 0.00 | 0.03 | 0.03 | 77 | 1016.9 |
| 20260906182012 | 17 | 27 | 11.3 | 16.1 | 0.00 | 0.03 | 0.03 | 79 | 1016.9 |
| 20260906181508 | 16 | 12 | 19.3 | 24.1 | 0.00 | 0.03 | 0.03 | 80 | 1016.5 |
| 20260906181003 | 16 | 39 | 14.5 | 16.1 | 0.00 | 0.03 | 0.03 | 84 | 1016.6 |
| 20260906180458 | 15 | 44 | 14.5 | 17.7 | 0.00 | 0.03 | 0.03 | 83 | 1016.9 |
| 20260906175956 | 15 | 32 | 16.1 | 22.5 | 0.00 | 0.03 | 0.03 | 83 | 1016.9 |
| 20260906175451 | 15 | 50 | 14.5 | 16.1 | 0.00 | 0.03 | 0.03 | 87 | 1017.0 |
| 20260906174950 | 15 | 52 | 16.1 | 17.7 | 0.00 | 0.03 | 0.03 | 89 | 1016.9 |
| 20260906174449 | 14 | 72 | 14.5 | 16.1 | 0.00 | 0.03 | 0.03 | 93 | 1017.3 |
| 20260906173944 | 14 | 58 | 6.4 | 8.0 | 0.00 | 0.03 | 0.03 | 94 | 1017.9 |
| 20260906173439 | 14 | 344 | 1.6 | 1.6 | 0.00 | 0.03 | 0.03 | 94 | 1018.2 |
| 20260906172939 | 13 | 341 | 4.8 | 4.8 | 0.00 | 0.03 | 0.03 | 94 | 1018.4 |
| 20260906172435 | 13 | 283 | 4.8 | 4.8 | 0.00 | 0.03 | 0.03 | 94 | 1018.7 |
| 20260906171930 | 13 | 277 | 3.2 | 3.2 | 0.00 | 0.03 | 0.03 | 94 | 1018.6 |
| 20260906171425 | 14 | 256 | 4.8 | 4.8 | 0.00 | 0.03 | 0.03 | 94 | 1018.8 |
| 20260906170921 | 13 | 267 | 4.8 | 4.8 | 0.00 | 0.03 | 0.03 | 94 | 1018.8 |
| 20260906170417 | 13 | 246 | 0.0 | 1.6 | 0.00 | 0.03 | 0.03 | 93 | 1018.7 |
| 20260906165913 | 13 | 252 | 0.0 | 0.0 | 0.00 | 0.03 | 0.03 | 93 | 1018.8 |
| 20260906165412 | 13 | 249 | 0.0 | 0.0 | 0.00 | 0.03 | 0.03 | 93 | 1018.6 |
| 20260906164907 | 13 | 279 | 1.6 | 1.6 | 0.00 | 0.03 | 0.03 | 93 | 1018.6 |
| 20260906164406 | 13 | 330 | 0.0 | 0.0 | 0.00 | 0.03 | 0.03 | 93 | 1018.7 |
| 20260906163903 | 13 | 331 | 0.0 | 0.0 | 0.00 | 0.03 | 0.03 | 94 | 1018.6 |
| 20260906163358 | 13 | 358 | 1.6 | 1.6 | 0.00 | 0.03 | 0.03 | 94 | 1018.7 |
| 20260906162856 | 13 | 320 | 0.0 | 0.0 | 0.00 | 0.03 | 0.03 | 94 | 1018.7 |
| 20260906162355 | 13 | 33 | 3.2 | 3.2 | 0.00 | 0.03 | 0.03 | 94 | 1018.5 |
| 20260906161850 | 13 | 333 | 1.6 | 1.6 | 0.00 | 0.03 | 0.03 | 94 | 1018.5 |
| 20260906161350 | 13 | 351 | 4.8 | 4.8 | 0.00 | 0.03 | 0.03 | 94 | 1018.6 |
| 20260906160849 | 13 | 31 | 4.8 | 4.8 | 0.00 | 0.03 | 0.03 | 94 | 1018.2 |
| 20260906160342 | 13 | 321 | 3.2 | 3.2 | 0.00 | 0.03 | 0.03 | 94 | 1018.6 |
| 20260906155840 | 12 | 349 | 9.7 | 9.7 | 0.00 | 0.03 | 0.03 | 94 | 1018.6 |
| 20260906155334 | 12 | 357 | 9.7 | 12.9 | 0.00 | 0.03 | 0.03 | 94 | 1018.6 |
| 20260906154831 | 12 | 294 | 8.0 | 9.7 | 0.13 | 0.03 | 0.03 | 94 | 1018.8 |
| 20260906154325 | 12 | 322 | 6.4 | 9.7 | 0.13 | 0.03 | 0.03 | 94 | 1018.9 |
| 20260906153824 | 12 | 292 | 9.7 | 11.3 | 0.00 | 0.00 | 0.00 | 94 | 1019.0 |
| 20260906153324 | 12 | 300 | 11.3 | 12.9 | 0.00 | 0.00 | 0.00 | 93 | 1019.1 |
| 20260906152819 | 12 | 300 | 14.5 | 16.1 | 0.00 | 0.00 | 0.00 | 92 | 1019.2 |
| 20260906152314 | 12 | 314 | 12.9 | 14.5 | 0.00 | 0.00 | 0.00 | 91 | 1019.1 |
| 20260906151813 | 12 | 337 | 14.5 | 17.7 | 0.00 | 0.00 | 0.00 | 90 | 1019.1 |
| 20260906151309 | 12 | 323 | 17.7 | 22.5 | 0.00 | 0.00 | 0.00 | 90 | 1019.2 |
| 20260906150804 | 12 | 296 | 17.7 | 22.5 | 0.00 | 0.00 | 0.00 | 90 | 1019.3 |
| 20260906150300 | 12 | 288 | 12.9 | 14.5 | 0.00 | 0.00 | 0.00 | 90 | 1019.6 |
| 20260906145759 | 12 | 294 | 11.3 | 12.9 | 0.00 | 0.00 | 0.00 | 90 | 1019.1 |
| 20260906145257 | 12 | 302 | 8.0 | 9.7 | 0.00 | 0.00 | 0.00 | 90 | 1019.2 |
| 20260906144753 | 12 | 295 | 14.5 | 17.7 | 0.00 | 0.00 | 0.00 | 89 | 1019.6 |
| 20260906144248 | 13 | 284 | 22.5 | 25.7 | 0.00 | 0.00 | 0.00 | 89 | 1019.7 |
| 20260906143747 | 15 | 289 | 9.7 | 11.3 | 0.00 | 0.00 | 0.00 | 90 | 1019.6 |
| 20260906143245 | 15 | 305 | 4.8 | 4.8 | 0.00 | 0.00 | 0.00 | 89 | 1019.3 |
| 20260906142744 | 15 | 325 | 3.2 | 8.0 | 0.00 | 0.00 | 0.00 | 89 | 1019.1 |
| 20260906142239 | 15 | 18 | 8.0 | 9.7 | 0.00 | 0.00 | 0.00 | 89 | 1019.0 |
| 20260906141738 | 14 | 50 | 6.4 | 8.0 | 0.00 | 0.00 | 0.00 | 89 | 1018.9 |
| 20260906141233 | 14 | 43 | 6.4 | 8.0 | 0.00 | 0.00 | 0.00 | 90 | 1019.0 |
| 20260906140732 | 14 | 49 | 8.0 | 11.3 | 0.00 | 0.00 | 0.00 | 90 | 1018.9 |
| 20260906140227 | 14 | 29 | 8.0 | 8.0 | 0.00 | 0.00 | 0.00 | 89 | 1018.8 |
| 20260906135724 | 14 | 31 | 4.8 | 4.8 | 0.00 | 0.00 | 0.00 | 89 | 1019.3 |
| 20260906135220 | 14 | 19 | 6.4 | 8.0 | 0.00 | 0.00 | 0.00 | 89 | 1019.3 |
| 20260906134716 | 15 | 18 | 6.4 | 8.0 | 0.00 | 0.00 | 0.00 | 89 | 1019.0 |
| 20260906134211 | 15 | 357 | 1.6 | 3.2 | 0.00 | 0.00 | 0.00 | 89 | 1018.8 |
| 20260906133706 | 15 | 53 | 9.7 | 9.7 | 0.00 | 0.00 | 0.00 | 89 | 1018.7 |
| 20260906133201 | 14 | 42 | 9.7 | 11.3 | 0.00 | 0.00 | 0.00 | 89 | 1018.6 |
| 20260906132657 | 14 | 50 | 12.9 | 14.5 | 0.00 | 0.00 | 0.00 | 90 | 1018.4 |
| 20260906132152 | 14 | 35 | 11.3 | 16.1 | 0.00 | 0.00 | 0.00 | 91 | 1018.4 |
| 20260906131648 | 13 | 353 | 6.4 | 8.0 | 0.00 | 0.00 | 0.00 | 91 | 1018.8 |
| 20260906131142 | 13 | 18 | 4.8 | 4.8 | 0.00 | 0.00 | 0.00 | 91 | 1018.8 |
| 20260906130638 | 13 | 5 | 4.8 | 4.8 | 0.00 | 0.00 | 0.00 | 92 | 1018.9 |
| 20260906130133 | 13 | 43 | 6.4 | 8.0 | 0.00 | 0.00 | 0.00 | 91 | 1018.9 |
| 20260906125631 | 13 | 51 | 9.7 | 11.3 | 0.00 | 0.00 | 0.00 | 91 | 1019.0 |
| 20260906125129 | 13 | 51 | 8.0 | 9.7 | 0.00 | 0.00 | 0.00 | 92 | 1019.0 |
| 20260906124625 | 13 | 67 | 8.0 | 9.7 | 0.00 | 0.00 | 0.00 | 92 | 1018.9 |
| 20260906124120 | 13 | 58 | 9.7 | 11.3 | 0.00 | 0.00 | 0.00 | 92 | 1018.9 |
| 20260906123620 | 13 | 32 | 9.7 | 12.9 | 0.00 | 0.00 | 0.00 | 92 | 1019.0 |
| 20260906123115 | 13 | 54 | 8.0 | 11.3 | 0.00 | 0.00 | 0.00 | 92 | 1018.8 |
| 20260906122614 | 13 | 47 | 3.2 | 3.2 | 0.00 | 0.00 | 0.00 | 92 | 1018.8 |
| 20260906122110 | 13 | 69 | 6.4 | 9.7 | 0.00 | 0.00 | 0.00 | 92 | 1018.7 |
| 20260906121606 | 13 | 38 | 3.2 | 4.8 | 0.00 | 0.00 | 0.00 | 92 | 1018.7 |
| 20260906121102 | 13 | 27 | 8.0 | 11.3 | 0.00 | 0.00 | 0.00 | 92 | 1018.7 |
| 20260906120557 | 13 | 28 | 8.0 | 8.0 | 0.00 | 0.00 | 0.00 | 92 | 1018.7 |
| 20260906120055 | 13 | 352 | 8.0 | 9.7 | 0.00 | 0.00 | 0.00 | 92 | 1018.8 |
| 20260906115554 | 13 | 352 | 6.4 | 8.0 | 0.00 | 0.00 | 0.00 | 92 | 1018.9 |
| 20260906115050 | 13 | 15 | 11.3 | 11.3 | 0.00 | 0.00 | 0.00 | 92 | 1019.2 |
| 20260906114549 | 13 | 23 | 11.3 | 14.5 | 0.00 | 0.00 | 0.00 | 91 | 1018.9 |
| 20260906114045 | 13 | 2 | 8.0 | 12.9 | 0.00 | 0.00 | 0.00 | 92 | 1019.0 |
| 20260906113544 | 13 | 28 | 8.0 | 9.7 | 0.00 | 0.00 | 0.00 | 91 | 1018.8 |
| 20260906113039 | 13 | 27 | 4.8 | 8.0 | 0.00 | 0.00 | 0.00 | 91 | 1018.8 |
| 20260906112534 | 13 | 32 | 9.7 | 11.3 | 0.00 | 0.00 | 0.00 | 91 | 1018.9 |
| 20260906112031 | 13 | 42 | 9.7 | 12.9 | 0.00 | 0.00 | 0.00 | 91 | 1018.8 |
| 20260906111530 | 13 | 62 | 11.3 | 12.9 | 0.00 | 0.00 | 0.00 | 90 | 1018.9 |
| 20260906111026 | 13 | 42 | 14.5 | 16.1 | 0.00 | 0.00 | 0.00 | 90 | 1018.9 |
| 20260906110525 | 13 | 27 | 12.9 | 16.1 | 0.00 | 0.00 | 0.00 | 90 | 1018.9 |
| 20260906110025 | 13 | 43 | 11.3 | 11.3 | 0.00 | 0.00 | 0.00 | 89 | 1019.0 |
| 20260906105520 | 13 | 37 | 9.7 | 11.3 | 0.00 | 0.00 | 0.00 | 89 | 1018.9 |
| 20260906105016 | 13 | 32 | 12.9 | 16.1 | 0.00 | 0.00 | 0.00 | 89 | 1019.0 |
| 20260906104514 | 13 | 3 | 12.9 | 16.1 | 0.00 | 0.00 | 0.00 | 89 | 1018.9 |
| 20260906104009 | 13 | 23 | 12.9 | 16.1 | 0.00 | 0.00 | 0.00 | 89 | 1019.0 |
| 20260906103507 | 13 | 37 | 8.0 | 11.3 | 0.00 | 0.00 | 0.00 | 89 | 1019.0 |
| 20260906103003 | 13 | 24 | 9.7 | 11.3 | 0.00 | 0.00 | 0.00 | 89 | 1019.0 |
| 20260906102502 | 13 | 32 | 8.0 | 11.3 | 0.00 | 0.00 | 0.00 | 89 | 1019.1 |
| 20260906102002 | 13 | 33 | 11.3 | 12.9 | 0.00 | 0.00 | 0.00 | 88 | 1019.1 |
| 20260906101457 | 13 | 22 | 14.5 | 22.5 | 0.00 | 0.00 | 0.00 | 88 | 1019.0 |
| 20260906100953 | 13 | 2 | 12.9 | 14.5 | 0.00 | 0.00 | 0.00 | 89 | 1019.1 |
| 20260906100448 | 13 | 20 | 14.5 | 16.1 | 0.00 | 0.00 | 0.00 | 89 | 1019.0 |
| 20260906095948 | 13 | 30 | 17.7 | 20.9 | 0.00 | 0.00 | 0.00 | 89 | 1019.1 |
| 20260906095443 | 13 | 17 | 14.5 | 17.7 | 0.00 | 0.00 | 0.00 | 89 | 1019.0 |
| 20260906094938 | 13 | 8 | 11.3 | 14.5 | 0.00 | 0.00 | 0.00 | 89 | 1018.9 |
| 20260906094432 | 13 | 17 | 14.5 | 17.7 | 0.00 | 0.00 | 0.00 | 88 | 1019.0 |
| 20260906093928 | 13 | 23 | 16.1 | 25.7 | 0.00 | 0.00 | 0.00 | 88 | 1018.8 |
| 20260906093424 | 13 | 15 | 12.9 | 17.7 | 0.00 | 0.00 | 0.00 | 87 | 1018.9 |
| 20260906092924 | 13 | 0 | 17.7 | 22.5 | 0.00 | 0.00 | 0.00 | 87 | 1019.2 |
| 20260906092424 | 13 | 359 | 24.1 | 27.4 | 0.00 | 0.00 | 0.00 | 87 | 1019.2 |
| 20260906091920 | 13 | 341 | 11.3 | 16.1 | 0.00 | 0.00 | 0.00 | 88 | 1019.5 |
| 20260906091415 | 14 | 0 | 14.5 | 16.1 | 0.00 | 0.00 | 0.00 | 87 | 1019.6 |
| 20260906090912 | 14 | 321 | 14.5 | 17.7 | 0.00 | 0.00 | 0.00 | 86 | 1019.3 |
| 20260906090412 | 14 | 349 | 11.3 | 11.3 | 0.00 | 0.00 | 0.00 | 87 | 1019.5 |
| 20260906085906 | 14 | 18 | 14.5 | 16.1 | 0.00 | 0.00 | 0.00 | 86 | 1019.8 |
| 20260906085406 | 14 | 1 | 14.5 | 16.1 | 0.00 | 0.00 | 0.00 | 86 | 1019.8 |
| 20260906084905 | 13 | 4 | 12.9 | 16.1 | 0.00 | 0.00 | 0.00 | 89 | 1019.9 |
| 20260906084400 | 14 | 320 | 11.3 | 14.5 | 0.00 | 0.00 | 0.00 | 88 | 1020.0 |
| 20260906083854 | 13 | 312 | 17.7 | 20.9 | 0.00 | 0.00 | 0.00 | 87 | 1020.2 |
| 20260906083349 | 13 | 357 | 16.1 | 20.9 | 0.00 | 0.00 | 0.00 | 87 | 1019.9 |
| 20260906082849 | 13 | 355 | 9.7 | 12.9 | 0.00 | 0.00 | 0.00 | 88 | 1019.8 |
| 20260906082344 | 13 | 10 | 11.3 | 12.9 | 0.00 | 0.00 | 0.00 | 89 | 1019.8 |
| 20260906081841 | 13 | 359 | 14.5 | 16.1 | 0.00 | 0.00 | 0.00 | 89 | 1019.9 |
| 20260906081336 | 13 | 351 | 8.0 | 9.7 | 0.00 | 0.00 | 0.00 | 89 | 1020.0 |
| 20260906080832 | 13 | 359 | 9.7 | 12.9 | 0.00 | 0.00 | 0.00 | 89 | 1020.0 |
| 20260906080328 | 13 | 335 | 9.7 | 12.9 | 0.00 | 0.00 | 0.00 | 89 | 1020.0 |
| 20260906075827 | 13 | 13 | 9.7 | 12.9 | 0.00 | 0.00 | 0.00 | 89 | 1019.9 |
| 20260906075327 | 13 | 355 | 6.4 | 8.0 | 0.00 | 0.00 | 0.00 | 88 | 1019.8 |
| 20260906074823 | 13 | 23 | 9.7 | 11.3 | 0.00 | 0.00 | 0.00 | 89 | 1019.9 |
| 20260906074322 | 13 | 352 | 4.8 | 4.8 | 0.00 | 0.00 | 0.00 | 88 | 1019.9 |
| 20260906073821 | 13 | 349 | 8.0 | 11.3 | 0.00 | 0.00 | 0.00 | 88 | 1019.7 |
| 20260906073321 | 13 | 15 | 9.7 | 12.9 | 0.00 | 0.00 | 0.00 | 88 | 1019.6 |
| 20260906072818 | 13 | 11 | 8.0 | 11.3 | 0.00 | 0.00 | 0.00 | 88 | 1019.8 |
| 20260906072314 | 13 | 17 | 9.7 | 11.3 | 0.00 | 0.00 | 0.00 | 88 | 1019.8 |
| 20260906071809 | 13 | 18 | 6.4 | 9.7 | 0.00 | 0.00 | 0.00 | 88 | 1019.9 |
| 20260906071304 | 14 | 18 | 12.9 | 14.5 | 0.00 | 0.00 | 0.00 | 87 | 1019.9 |
| 20260906070801 | 14 | 29 | 12.9 | 14.5 | 0.00 | 0.00 | 0.00 | 86 | 1019.9 |
| 20260906070256 | 14 | 35 | 14.5 | 17.7 | 0.00 | 0.00 | 0.00 | 87 | 1019.9 |
| 20260906065755 | 14 | 23 | 11.3 | 16.1 | 0.00 | 0.00 | 0.00 | 87 | 1019.9 |
| 20260906065251 | 14 | 5 | 9.7 | 16.1 | 0.00 | 0.00 | 0.00 | 89 | 1020.4 |
| 20260906064747 | 14 | 351 | 11.3 | 12.9 | 0.00 | 0.00 | 0.00 | 87 | 1020.5 |
| 20260906064242 | 14 | 358 | 14.5 | 16.1 | 0.00 | 0.00 | 0.00 | 86 | 1020.5 |
| 20260906063737 | 14 | 358 | 12.9 | 17.7 | 0.00 | 0.00 | 0.00 | 88 | 1020.5 |
| 20260906063233 | 14 | 356 | 11.3 | 14.5 | 0.00 | 0.00 | 0.00 | 88 | 1020.7 |
| 20260906062728 | 14 | 8 | 12.9 | 14.5 | 0.00 | 0.00 | 0.00 | 87 | 1020.4 |
| 20260906062227 | 14 | 11 | 17.7 | 25.7 | 0.00 | 0.00 | 0.00 | 87 | 1020.3 |
| 20260906061723 | 14 | 15 | 16.1 | 17.7 | 0.00 | 0.00 | 0.00 | 87 | 1020.3 |
| 20260906061219 | 13 | 22 | 14.5 | 17.7 | 0.00 | 0.00 | 0.00 | 88 | 1020.2 |
| 20260906060714 | 13 | 20 | 11.3 | 16.1 | 0.00 | 0.00 | 0.00 | 89 | 1020.3 |
| 20260906060212 | 13 | 14 | 12.9 | 14.5 | 0.00 | 0.00 | 0.00 | 89 | 1020.5 |
| 20260906055707 | 13 | 13 | 9.7 | 11.3 | 0.00 | 0.23 | 0.23 | 89 | 1020.3 |
| 20260906055202 | 13 | 24 | 16.1 | 20.9 | 0.00 | 0.23 | 0.23 | 89 | 1020.3 |
| 20260906054658 | 13 | 3 | 14.5 | 16.1 | 0.00 | 0.23 | 0.23 | 88 | 1020.4 |
| 20260906054158 | 13 | 5 | 19.3 | 22.5 | 0.00 | 0.23 | 0.23 | 88 | 1020.5 |
| 20260906053655 | 13 | 6 | 20.9 | 29.0 | 0.00 | 0.23 | 0.23 | 88 | 1020.4 |
| 20260906053150 | 13 | 23 | 16.1 | 17.7 | 0.00 | 0.23 | 0.23 | 88 | 1020.1 |
| 20260906052645 | 13 | 3 | 17.7 | 20.9 | 0.00 | 0.23 | 0.23 | 87 | 1019.9 |
| 20260906052141 | 13 | 0 | 17.7 | 20.9 | 0.00 | 0.23 | 0.23 | 87 | 1020.1 |
| 20260906051637 | 13 | 30 | 14.5 | 17.7 | 0.00 | 0.23 | 0.23 | 87 | 1020.2 |
| 20260906051137 | 13 | 17 | 19.3 | 24.1 | 0.18 | 0.23 | 0.23 | 87 | 1020.1 |
| 20260906050633 | 13 | 3 | 14.5 | 20.9 | 0.18 | 0.23 | 0.23 | 88 | 1020.0 |
| 20260906050128 | 13 | 27 | 14.5 | 16.1 | 0.18 | 0.23 | 0.23 | 87 | 1019.9 |
| 20260906045626 | 13 | 9 | 19.3 | 22.5 | 0.18 | 0.20 | 0.20 | 86 | 1020.1 |
| 20260906045121 | 14 | 3 | 17.7 | 22.5 | 0.18 | 0.20 | 0.20 | 85 | 1019.8 |
| 20260906044617 | 14 | 21 | 20.9 | 25.7 | 0.00 | 0.18 | 0.18 | 83 | 1020.1 |
| 20260906044113 | 14 | 6 | 19.3 | 24.1 | 0.00 | 0.18 | 0.18 | 83 | 1020.5 |
| 20260906043609 | 14 | 357 | 12.9 | 16.1 | 0.00 | 0.18 | 0.18 | 83 | 1020.8 |
| 20260906043104 | 14 | 320 | 14.5 | 17.7 | 0.00 | 0.18 | 0.18 | 84 | 1019.9 |
| 20260906042603 | 14 | 356 | 16.1 | 16.1 | 0.00 | 0.18 | 0.18 | 85 | 1019.8 |
| 20260906042058 | 13 | 2 | 17.7 | 20.9 | 0.00 | 0.18 | 0.18 | 85 | 1019.5 |
| 20260906041554 | 13 | 23 | 17.7 | 25.7 | 0.00 | 0.18 | 0.18 | 86 | 1019.2 |
| 20260906041048 | 13 | 21 | 19.3 | 22.5 | 0.00 | 0.18 | 0.18 | 86 | 1019.3 |
| 20260906040544 | 14 | 21 | 19.3 | 24.1 | 0.00 | 0.18 | 0.18 | 85 | 1019.3 |
| 20260906040039 | 14 | 16 | 19.3 | 25.7 | 0.00 | 0.18 | 0.18 | 85 | 1019.3 |
| 20260906035534 | 14 | 28 | 17.7 | 20.9 | 0.00 | 0.18 | 0.18 | 85 | 1019.6 |
| 20260906035030 | 14 | 359 | 22.5 | 25.7 | 0.00 | 0.18 | 0.18 | 84 | 1019.8 |
| 20260906034530 | 14 | 5 | 20.9 | 24.1 | 0.00 | 0.18 | 0.18 | 84 | 1019.7 |
| 20260906034025 | 14 | 5 | 14.5 | 17.7 | 0.00 | 0.18 | 0.18 | 84 | 1019.8 |
| 20260906033520 | 14 | 351 | 12.9 | 14.5 | 0.00 | 0.18 | 0.18 | 83 | 1020.0 |
| 20260906033016 | 15 | 14 | 11.3 | 12.9 | 0.43 | 0.18 | 0.18 | 81 | 1020.1 |
| 20260906032513 | 15 | 359 | 19.3 | 22.5 | 0.43 | 0.18 | 0.18 | 79 | 1020.3 |
| 20260906032012 | 16 | 312 | 12.9 | 16.1 | 0.00 | 0.10 | 0.10 | 70 | 1020.4 |
| 20260906031508 | 16 | 13 | 9.7 | 11.3 | 0.00 | 0.10 | 0.10 | 68 | 1021.0 |
| 20260906031003 | 16 | 310 | 9.7 | 9.7 | 0.00 | 0.10 | 0.10 | 68 | 1020.8 |
| 20260906030457 | 16 | 21 | 14.5 | 17.7 | 0.00 | 0.10 | 0.10 | 68 | 1019.7 |
| 20260906025957 | 16 | 356 | 19.3 | 24.1 | 0.00 | 0.10 | 0.10 | 68 | 1019.0 |
| 20260906025456 | 16 | 7 | 20.9 | 24.1 | 0.00 | 0.10 | 0.10 | 68 | 1018.9 |
| 20260906024955 | 16 | 22 | 12.9 | 14.5 | 0.00 | 0.10 | 0.10 | 68 | 1018.9 |
| 20260906024450 | 16 | 14 | 16.1 | 20.9 | 0.00 | 0.10 | 0.10 | 67 | 1018.7 |
| 20260906023950 | 16 | 26 | 16.1 | 20.9 | 0.00 | 0.10 | 0.10 | 68 | 1018.6 |
| 20260906023447 | 16 | 28 | 17.7 | 20.9 | 0.00 | 0.10 | 0.10 | 68 | 1018.6 |
| 20260906022947 | 16 | 39 | 16.1 | 24.1 | 0.00 | 0.10 | 0.10 | 67 | 1018.5 |
| 20260906022442 | 16 | 22 | 17.7 | 25.7 | 0.00 | 0.10 | 0.10 | 67 | 1018.2 |
| 20260906021938 | 16 | 38 | 19.3 | 22.5 | 0.00 | 0.10 | 0.10 | 67 | 1018.4 |
| 20260906021438 | 16 | 44 | 14.5 | 20.9 | 0.00 | 0.10 | 0.10 | 66 | 1018.5 |
| 20260906020932 | 16 | 41 | 19.3 | 22.5 | 0.00 | 0.10 | 0.10 | 66 | 1018.6 |
| 20260906020427 | 16 | 26 | 17.7 | 25.7 | 0.00 | 0.10 | 0.10 | 65 | 1018.2 |
| 20260906015927 | 16 | 41 | 16.1 | 20.9 | 0.00 | 0.10 | 0.10 | 64 | 1018.4 |
| 20260906015426 | 17 | 49 | 11.3 | 14.5 | 0.00 | 0.10 | 0.10 | 64 | 1018.2 |
| 20260906014926 | 17 | 60 | 9.7 | 14.5 | 0.00 | 0.10 | 0.10 | 63 | 1018.4 |
| 20260906014426 | 17 | 35 | 14.5 | 16.1 | 0.00 | 0.10 | 0.10 | 63 | 1018.1 |
| 20260906013922 | 17 | 0 | 11.3 | 14.5 | 0.00 | 0.10 | 0.10 | 62 | 1018.2 |
| 20260906013417 | 17 | 28 | 11.3 | 12.9 | 0.00 | 0.10 | 0.10 | 61 | 1018.4 |
| 20260906012913 | 18 | 26 | 14.5 | 16.1 | 0.00 | 0.10 | 0.10 | 59 | 1018.4 |
| 20260906012408 | 18 | 28 | 12.9 | 16.1 | 0.00 | 0.10 | 0.10 | 58 | 1018.6 |
| 20260906011907 | 18 | 35 | 9.7 | 11.3 | 0.00 | 0.10 | 0.10 | 57 | 1018.1 |
| 20260906011402 | 18 | 30 | 12.9 | 17.7 | 0.00 | 0.10 | 0.10 | 57 | 1018.2 |
| 20260906010858 | 18 | 15 | 14.5 | 22.5 | 0.00 | 0.10 | 0.10 | 56 | 1018.4 |
| 20260906010354 | 18 | 23 | 8.0 | 11.3 | 0.00 | 0.10 | 0.10 | 56 | 1018.2 |
| 20260906005849 | 18 | 23 | 11.3 | 12.9 | 0.00 | 0.10 | 0.10 | 56 | 1018.5 |
| 20260906005348 | 19 | 1 | 11.3 | 14.5 | 0.00 | 0.10 | 0.10 | 56 | 1018.4 |
| 20260906004847 | 19 | 36 | 16.1 | 16.1 | 0.00 | 0.10 | 0.10 | 55 | 1018.2 |
| 20260906004347 | 19 | 27 | 14.5 | 17.7 | 0.00 | 0.10 | 0.10 | 55 | 1018.5 |
| 20260906003842 | 20 | 33 | 16.1 | 20.9 | 0.00 | 0.10 | 0.10 | 54 | 1018.5 |
| 20260906003338 | 20 | 30 | 16.1 | 17.7 | 0.00 | 0.10 | 0.10 | 53 | 1018.5 |
| 20260906002833 | 20 | 28 | 17.7 | 24.1 | 0.00 | 0.10 | 0.10 | 51 | 1018.4 |
| 20260906002332 | 21 | 27 | 14.5 | 20.9 | 0.00 | 0.10 | 0.10 | 50 | 1018.6 |
| 20260906001828 | 21 | 34 | 16.1 | 20.9 | 0.00 | 0.10 | 0.10 | 50 | 1018.2 |
| 20260906001324 | 21 | 41 | 17.7 | 20.9 | 0.00 | 0.10 | 0.10 | 50 | 1018.4 |
| 20260906000819 | 20 | 32 | 11.3 | 14.5 | 0.00 | 0.10 | 0.10 | 51 | 1018.1 |
| 20260906000314 | 21 | 54 | 12.9 | 14.5 | 0.00 | 0.10 | 0.10 | 50 | 1018.5 |
| 20260905235814 | 21 | 41 | 14.5 | 16.1 | 0.00 | 0.10 | 0.10 | 49 | 1018.5 |
| 20260905235314 | 21 | 30 | 17.7 | 22.5 | 0.00 | 0.10 | 0.10 | 48 | 1018.5 |
| 20260905234809 | 21 | 40 | 16.1 | 17.7 | 0.00 | 0.10 | 0.10 | 47 | 1018.7 |
| 20260905234304 | 22 | 59 | 11.3 | 14.5 | 0.00 | 0.10 | 0.10 | 45 | 1018.9 |
| 20260905233800 | 22 | 32 | 9.7 | 12.9 | 0.00 | 0.10 | 0.10 | 45 | 1018.6 |
| 20260905233259 | 22 | 53 | 9.7 | 12.9 | 0.00 | 0.10 | 0.10 | 46 | 1018.6 |